Terminal Aerodrome Forecast
Issued by NWS

Home | Current Version | Previous Version | Text Only | Print | Product List | Glossary On
Versions: 1 2 3 4 5 6 7 8 9 10 11 12 13
000
FTUS43 KPAH 172300
TAFCGI
TAF
KCGI 172329Z 1800/1824 16003KT P6SM SCT250
     FM180500 VRB03KT P6SM SCT050 BKN150
     FM181400 04005KT P6SM SCT050=

USA.gov is the U.S. government's official web portal to all federal, state and local government web resources and services.